ORMM/BSR METAR and TAF weather

Enter ICAO airport designator
Station Type Date Time Source
ORMM METAR 2021/05/15 01:00 UTC NOAA

ORMM 150100Z 26006KT CAVOK 27/15 Q1001 NOSIG


Station Type Date Time Source
ORMM Decoded METAR 2021/05/15 01:00 UTC NOAA

Station name not available
May 14, 2021 - 09:00 PM EDT / 2021.05.15 0100 UTC
Wind: from the W (260 degrees) at 7 MPH (6 KT):0
Visibility: greater than 7 mile(s):0
Temperature: 80 F (27 C)
Dew Point: 59 F (15 C)
Relative Humidity: 47%
Pressure (altimeter): 29.56 in. Hg (1001 hPa)
ob: ORMM 150100Z 26006KT CAVOK 27/15 Q1001 NOSIG
cycle: 1

Station Type Date Time Source
ORMM TAF 2021/05/14 18:25 UTC NOAA

TAF ORMM 141600Z 1418/1518 32010KT 8000 NSC
TEMPO 1618/1500 VRB03KT

Example: see airport list